createdAt,value
2022-10-13T00:01:36.954Z,78.28
2022-10-13T00:04:04.893Z,77.53
2022-10-13T00:06:32.517Z,79.13
2022-10-13T00:09:00.334Z,78.72
2022-10-13T00:11:29.762Z,76.82
2022-10-13T00:14:03.732Z,76.68
2022-10-13T00:16:34.244Z,81.85
2022-10-13T00:19:02.349Z,81.45
2022-10-13T00:21:30.355Z,81.70
2022-10-13T00:23:58.103Z,79.93
2022-10-13T00:26:26.892Z,83.65
2022-10-13T00:28:56.341Z,83.40
2022-10-13T00:31:27.352Z,86.20
2022-10-13T00:33:56.175Z,90.55
2022-10-13T00:36:24.714Z,92.07
2022-10-13T00:38:52.975Z,93.13
2022-10-13T00:41:21.223Z,93.63
2022-10-13T00:44:00.321Z,96.53
2022-10-13T00:46:30.913Z,102.18
2022-10-13T00:49:14.408Z,100.13
2022-10-13T00:51:49.953Z,102.40
2022-10-13T00:54:22.990Z,100.90
2022-10-13T00:56:52.276Z,101.20
2022-10-13T00:59:24.447Z,103.72
2022-10-13T01:01:54.767Z,101.15
2022-10-13T01:04:25.755Z,100.55
2022-10-13T01:06:59.873Z,102.80
2022-10-13T01:09:27.524Z,109.85
2022-10-13T01:12:24.204Z,109.10
2022-10-13T01:15:28.100Z,108.45
2022-10-13T01:18:26.823Z,111.53
2022-10-13T01:21:16.102Z,111.25
2022-10-13T01:24:08.173Z,107.72
2022-10-13T01:27:02.993Z,107.53
2022-10-13T01:30:08.101Z,110.07
2022-10-13T01:32:53.674Z,108.50
2022-10-13T01:35:31.793Z,107.55
2022-10-13T01:38:17.063Z,109.03
2022-10-13T01:40:54.814Z,112.70
2022-10-13T01:43:29.851Z,110.50
2022-10-13T01:46:14.130Z,108.57
2022-10-13T01:48:44.213Z,107.95
2022-10-13T01:51:16.809Z,110.13
2022-10-13T01:53:46.421Z,111.75
2022-10-13T01:56:14.536Z,110.78
2022-10-13T01:58:42.752Z,113.63
2022-10-13T02:01:31.315Z,115.30
2022-10-13T02:04:17.077Z,109.15
2022-10-13T02:07:23.744Z,111.88
2022-10-13T02:10:23.872Z,110.22
2022-10-13T02:13:00.906Z,108.95
2022-10-13T02:15:39.942Z,110.35
2022-10-13T02:18:11.197Z,110.43
2022-10-13T02:20:41.732Z,109.53
2022-10-13T02:23:13.261Z,112.28
2022-10-13T02:25:42.105Z,106.75
2022-10-13T02:28:11.211Z,111.18
2022-10-13T02:30:44.464Z,107.57
2022-10-13T02:33:13.353Z,109.00
2022-10-13T02:35:42.255Z,109.45
2022-10-13T02:38:10.650Z,110.10
2022-10-13T02:40:38.305Z,111.40
2022-10-13T02:43:05.996Z,112.57
2022-10-13T02:45:33.756Z,106.95
2022-10-13T02:48:01.583Z,105.55
2022-10-13T02:50:29.773Z,107.05
2022-10-13T02:52:59.523Z,105.28
2022-10-13T02:55:27.190Z,103.07
2022-10-13T02:57:57.032Z,102.15
2022-10-13T03:00:24.960Z,101.30
2022-10-13T03:02:52.805Z,104.15
2022-10-13T03:05:20.412Z,99.35
2022-10-13T03:07:48.213Z,104.75
2022-10-13T03:10:16.418Z,103.82
2022-10-13T03:12:45.305Z,101.43
2022-10-13T03:15:13.079Z,104.00
2022-10-13T03:17:41.284Z,99.18
2022-10-13T03:20:09.493Z,101.90
2022-10-13T03:22:37.222Z,99.05
2022-10-13T03:25:05.514Z,101.07
2022-10-13T03:27:33.773Z,103.45
2022-10-13T03:30:01.623Z,102.40
2022-10-13T03:32:32.146Z,101.28
2022-10-13T03:34:59.778Z,103.90
2022-10-13T03:37:29.706Z,104.68
2022-10-13T03:39:57.441Z,101.05
2022-10-13T03:42:25.054Z,101.38
2022-10-13T03:44:56.393Z,101.57
2022-10-13T03:47:24.410Z,100.70
2022-10-13T03:49:54.858Z,99.20
2022-10-13T03:52:23.275Z,101.13
2022-10-13T03:54:50.880Z,100.40
2022-10-13T03:57:18.648Z,100.93
2022-10-13T03:59:46.190Z,100.53
2022-10-13T04:02:14.062Z,100.03
2022-10-13T04:04:41.881Z,99.80
2022-10-13T04:07:09.518Z,99.30
2022-10-13T04:09:37.132Z,100.88
2022-10-13T04:12:05.614Z,104.15
2022-10-13T04:14:33.305Z,101.72
2022-10-13T04:17:09.152Z,100.60
2022-10-13T04:19:36.935Z,99.38
2022-10-13T04:22:06.451Z,101.70
2022-10-13T04:24:34.262Z,100.63
2022-10-13T04:27:01.940Z,104.68
2022-10-13T04:29:29.693Z,99.38
2022-10-13T04:31:59.783Z,101.18
2022-10-13T04:34:36.437Z,100.63
2022-10-13T04:37:07.063Z,97.63
2022-10-13T04:39:34.813Z,101.03
2022-10-13T04:42:02.506Z,99.45
2022-10-13T04:44:31.207Z,99.38
2022-10-13T04:47:05.175Z,94.80
2022-10-13T04:49:32.903Z,95.22
2022-10-13T04:52:06.743Z,99.00
2022-10-13T04:54:34.365Z,94.47
2022-10-13T04:57:02.009Z,93.07
2022-10-13T04:59:29.735Z,94.53
2022-10-13T05:01:57.280Z,94.75
2022-10-13T05:04:27.781Z,57.87
2022-10-13T05:07:19.226Z,91.65
2022-10-13T05:09:43.882Z,91.43
2022-10-13T05:12:13.762Z,91.75
2022-10-13T05:14:41.383Z,90.90
2022-10-13T05:17:09.277Z,93.43
2022-10-13T05:19:37.077Z,90.97
2022-10-13T05:22:04.868Z,93.50
2022-10-13T05:24:38.918Z,91.07
2022-10-13T05:27:10.342Z,89.65
2022-10-13T05:29:38.834Z,89.00
2022-10-13T05:32:18.921Z,87.30
2022-10-13T05:34:49.864Z,85.68
2022-10-13T05:37:18.505Z,82.97
2022-10-13T05:39:48.853Z,86.15
2022-10-13T05:42:17.014Z,88.57
2022-10-13T05:44:44.892Z,85.90
2022-10-13T05:47:12.680Z,85.53
2022-10-13T05:49:41.083Z,82.45
2022-10-13T05:52:12.659Z,86.05
2022-10-13T05:54:46.801Z,85.47
2022-10-13T05:57:31.274Z,85.68
2022-10-13T06:00:05.913Z,91.80
2022-10-13T06:02:51.453Z,85.38
2022-10-13T06:05:36.360Z,86.25
2022-10-13T06:08:10.104Z,84.45
2022-10-13T06:10:38.274Z,86.68
2022-10-13T06:13:09.754Z,86.40
2022-10-13T06:15:43.413Z,81.75
2022-10-13T06:18:11.298Z,79.47
2022-10-13T06:21:09.125Z,82.15
2022-10-13T06:23:45.809Z,80.30
2022-10-13T06:26:13.723Z,82.25
2022-10-13T06:28:42.658Z,85.78
2022-10-13T06:31:12.922Z,95.65
2022-10-13T06:33:49.019Z,77.85
2022-10-13T06:36:22.745Z,78.32
2022-10-13T06:38:53.303Z,72.18
2022-10-13T06:41:22.090Z,70.47
2022-10-13T06:43:49.842Z,70.60
2022-10-13T06:46:17.853Z,71.30
2022-10-13T06:48:45.591Z,65.18
2022-10-13T06:51:13.455Z,65.30
2022-10-13T06:53:41.475Z,62.10
2022-10-13T06:56:10.026Z,64.25
2022-10-13T06:58:38.492Z,63.85
2022-10-13T07:01:18.480Z,63.13
2022-10-13T07:03:49.676Z,62.42
2022-10-13T07:06:19.945Z,67.38
2022-10-13T07:08:52.302Z,57.13
2022-10-13T07:11:29.186Z,57.75
2022-10-13T07:13:57.206Z,56.03
2022-10-13T07:16:24.952Z,68.07
2022-10-13T07:18:52.712Z,56.05
2022-10-13T07:21:20.322Z,51.63
2022-10-13T07:23:56.678Z,73.05
2022-10-13T07:26:24.473Z,47.78
2022-10-13T07:28:53.113Z,44.70
2022-10-13T07:31:21.373Z,51.97
2022-10-13T07:33:50.597Z,50.65
2022-10-13T07:36:27.825Z,51.63
2022-10-13T07:38:58.820Z,49.95
2022-10-13T07:41:26.603Z,53.55
2022-10-13T07:43:57.352Z,52.47
2022-10-13T07:46:27.915Z,52.20
2022-10-13T07:48:55.531Z,53.90
2022-10-13T07:51:29.206Z,54.15
2022-10-13T07:53:57.064Z,52.85
2022-10-13T07:56:24.752Z,52.53
2022-10-13T07:58:52.436Z,51.25
2022-10-13T08:04:35.506Z,48.17
2022-10-13T08:07:05.908Z,47.85
2022-10-13T08:09:35.194Z,47.15
2022-10-13T08:12:03.381Z,44.95
2022-10-13T08:14:31.539Z,44.60
2022-10-13T08:16:59.391Z,43.97
2022-10-13T08:19:28.538Z,43.40
2022-10-13T08:22:09.170Z,41.78
2022-10-13T08:24:37.774Z,40.38
2022-10-13T08:27:17.537Z,41.90
2022-10-13T08:29:48.791Z,41.05
2022-10-13T08:32:18.487Z,43.22
2022-10-13T08:34:46.401Z,44.35
2022-10-13T08:37:19.259Z,41.72
2022-10-13T08:39:47.395Z,39.67
2022-10-13T08:42:21.091Z,40.58
2022-10-13T08:45:28.373Z,40.58
2022-10-13T08:47:54.783Z,42.15
2022-10-13T08:50:25.529Z,42.92
2022-10-13T08:53:00.800Z,40.15
2022-10-13T08:55:38.845Z,37.53
2022-10-13T08:58:31.183Z,38.97
2022-10-13T09:01:15.238Z,40.80
2022-10-13T09:03:55.944Z,36.85
2022-10-13T09:06:31.944Z,37.65
2022-10-13T09:09:03.395Z,37.17
2022-10-13T09:11:40.653Z,38.67
2022-10-13T09:14:11.526Z,37.38
2022-10-13T09:16:41.886Z,37.75
2022-10-13T09:19:34.411Z,36.78
2022-10-13T09:22:24.293Z,34.50
2022-10-13T09:25:13.062Z,37.38
2022-10-13T09:28:01.424Z,39.88
2022-10-13T09:31:31.683Z,34.28
2022-10-13T09:34:22.803Z,32.90
2022-10-13T09:37:05.090Z,35.60
2022-10-13T09:39:34.182Z,31.33
2022-10-13T09:42:28.042Z,31.80
2022-10-13T09:45:25.741Z,27.63
2022-10-13T09:47:59.923Z,26.55
2022-10-13T09:50:30.265Z,25.33
2022-10-13T09:53:49.621Z,23.58
2022-10-13T09:56:25.314Z,17.77
2022-10-13T09:59:23.551Z,21.23
2022-10-13T10:01:54.949Z,17.35
2022-10-13T10:04:43.423Z,18.58
2022-10-13T10:07:16.258Z,20.58
2022-10-13T10:10:23.240Z,17.05
2022-10-13T10:12:51.574Z,17.75
2022-10-13T10:15:33.344Z,14.93
2022-10-13T10:18:14.635Z,14.77
2022-10-13T10:20:55.655Z,14.38
2022-10-13T10:23:35.840Z,14.05
2022-10-13T10:26:20.770Z,14.30
2022-10-13T10:29:08.997Z,15.05
2022-10-13T10:32:37.596Z,12.68
2022-10-13T10:35:58.192Z,12.88
2022-10-13T10:38:48.688Z,14.65
2022-10-13T10:41:32.927Z,13.90
2022-10-13T10:44:08.002Z,12.55
2022-10-13T10:46:40.642Z,12.90
2022-10-13T10:49:22.586Z,12.70
2022-10-13T10:51:50.414Z,13.25
2022-10-13T10:54:20.753Z,12.07
2022-10-13T10:57:10.494Z,12.85
2022-10-13T11:00:15.837Z,11.50
2022-10-13T11:03:13.623Z,16.17
2022-10-13T11:06:00.752Z,11.27
2022-10-13T11:09:06.304Z,19.20
2022-10-13T11:11:39.501Z,15.63
2022-10-13T11:14:27.105Z,9.93
2022-10-13T11:17:06.985Z,10.77
2022-10-13T11:19:36.934Z,13.27
2022-10-13T11:22:04.634Z,18.85
2022-10-13T11:24:36.289Z,12.25
2022-10-13T11:27:15.863Z,15.45
2022-10-13T11:29:51.828Z,12.95
2022-10-13T11:32:45.042Z,10.32
2022-10-13T11:35:12.745Z,11.95
2022-10-13T11:38:16.818Z,10.57
2022-10-13T11:41:31.091Z,10.13
2022-10-13T11:44:19.747Z,13.40
2022-10-13T11:47:08.480Z,13.48
2022-10-13T11:49:58.842Z,13.25
2022-10-13T11:52:42.201Z,11.27
2022-10-13T11:55:16.788Z,10.98
2022-10-13T11:58:23.319Z,9.35
2022-10-13T12:01:01.338Z,9.57
2022-10-13T12:03:35.273Z,10.00
2022-10-13T12:06:21.077Z,9.75
2022-10-13T12:09:33.803Z,9.40
2022-10-13T12:12:12.879Z,9.50
2022-10-13T12:14:48.266Z,7.88
2022-10-13T12:17:36.103Z,9.35
2022-10-13T12:20:30.770Z,8.73
2022-10-13T12:23:17.555Z,9.13
2022-10-13T12:25:57.573Z,8.68
2022-10-13T12:28:50.418Z,8.52
2022-10-13T12:31:27.198Z,9.48
2022-10-13T12:33:57.679Z,9.23
2022-10-13T12:39:26.104Z,9.23
2022-10-13T12:41:56.406Z,8.73
2022-10-13T12:44:27.179Z,8.93
2022-10-13T12:46:59.789Z,8.00
2022-10-13T12:49:33.337Z,8.68
2022-10-13T12:52:10.134Z,8.15
2022-10-13T12:54:40.315Z,9.27
2022-10-13T12:57:19.291Z,9.55
2022-10-13T12:59:47.913Z,8.15
2022-10-13T13:02:28.344Z,9.30
2022-10-13T13:04:56.254Z,8.30
2022-10-13T13:07:26.920Z,15.70
2022-10-13T13:10:09.527Z,8.02
2022-10-13T13:12:38.274Z,7.88
2022-10-13T13:15:35.138Z,7.80
2022-10-13T13:18:42.540Z,8.18
2022-10-13T13:21:13.755Z,8.75
2022-10-13T13:23:51.005Z,8.55
2022-10-13T13:26:23.916Z,8.43
2022-10-13T13:28:54.419Z,7.32
2022-10-13T13:31:24.796Z,9.35
2022-10-13T13:33:53.244Z,8.40
2022-10-13T13:36:23.597Z,8.07
2022-10-13T13:38:54.704Z,9.10
2022-10-13T13:41:23.043Z,8.85
2022-10-13T13:43:50.797Z,9.88
2022-10-13T13:46:22.461Z,9.32
2022-10-13T13:48:50.996Z,9.07
2022-10-13T13:51:18.714Z,10.32
2022-10-13T13:53:46.487Z,9.95
2022-10-13T13:56:16.823Z,10.60
2022-10-13T13:58:45.348Z,10.87
2022-10-13T14:01:13.821Z,9.63
2022-10-13T14:03:42.050Z,10.05
2022-10-13T14:06:20.875Z,11.18
2022-10-13T14:08:49.073Z,12.75
2022-10-13T14:11:16.776Z,10.93
2022-10-13T14:13:44.583Z,11.05
2022-10-13T14:16:17.895Z,9.52
2022-10-13T14:18:45.708Z,9.25
2022-10-13T14:21:13.399Z,13.82
2022-10-13T14:23:45.820Z,11.25
2022-10-13T14:26:15.779Z,10.35
2022-10-13T14:28:45.096Z,10.77
2022-10-13T14:31:13.047Z,10.45
2022-10-13T14:33:41.836Z,10.05
2022-10-13T14:36:10.107Z,11.93
2022-10-13T14:38:37.835Z,8.95
2022-10-13T14:41:06.831Z,9.73
2022-10-13T14:43:34.438Z,10.20
2022-10-13T14:46:06.826Z,10.57
2022-10-13T14:48:35.998Z,11.13
2022-10-13T14:51:07.947Z,9.60
2022-10-13T14:53:44.531Z,11.15
2022-10-13T14:56:21.419Z,20.70
2022-10-13T15:01:22.849Z,9.40
2022-10-13T15:03:50.700Z,9.63
2022-10-13T15:06:21.536Z,9.80
2022-10-13T15:08:49.933Z,9.75
2022-10-13T15:11:19.087Z,9.30
2022-10-13T15:13:46.833Z,10.73
2022-10-13T15:16:18.340Z,10.18
2022-10-13T15:18:47.430Z,10.40
2022-10-13T15:21:19.266Z,12.25
2022-10-13T15:23:47.973Z,15.00
2022-10-13T15:26:17.555Z,14.23
2022-10-13T15:28:47.704Z,14.27
2022-10-13T15:31:16.435Z,13.30
2022-10-13T15:33:48.914Z,11.85
2022-10-13T15:36:16.683Z,10.93
2022-10-13T15:38:44.357Z,13.38
2022-10-13T15:41:12.725Z,11.15
2022-10-13T15:43:40.704Z,11.18
2022-10-13T15:46:13.053Z,9.90
2022-10-13T15:48:40.825Z,10.85
2022-10-13T15:51:16.956Z,10.98
2022-10-13T15:53:46.955Z,11.38
2022-10-13T15:56:17.051Z,11.90
2022-10-13T16:01:14.702Z,11.23
2022-10-13T16:03:43.028Z,12.20
2022-10-13T16:06:12.675Z,12.95
2022-10-13T16:08:44.360Z,12.07
2022-10-13T16:11:14.226Z,12.18
2022-10-13T16:13:45.648Z,11.10
2022-10-13T16:16:14.372Z,12.18
2022-10-13T16:18:42.609Z,12.02
2022-10-13T16:21:26.046Z,11.52
2022-10-13T16:23:53.867Z,12.13
2022-10-13T16:26:22.473Z,11.18
2022-10-13T16:28:56.890Z,11.93
2022-10-13T16:31:25.769Z,12.00
2022-10-13T16:33:58.408Z,12.77
2022-10-13T16:36:26.488Z,12.10
2022-10-13T16:38:55.256Z,12.63
2022-10-13T16:41:24.089Z,13.07
2022-10-13T16:43:51.923Z,12.77
2022-10-13T16:46:20.717Z,13.45
2022-10-13T16:48:48.934Z,13.43
2022-10-13T16:51:23.634Z,14.20
2022-10-13T16:53:53.112Z,14.70
2022-10-13T16:56:24.639Z,14.30
2022-10-13T16:58:57.897Z,14.05
2022-10-13T17:01:26.466Z,14.75
2022-10-13T17:03:54.732Z,15.23
2022-10-13T17:06:25.678Z,16.73
2022-10-13T17:09:03.529Z,16.17
2022-10-13T17:11:33.037Z,16.60
2022-10-13T17:14:01.866Z,17.10
2022-10-13T17:16:34.177Z,17.38
2022-10-13T17:19:02.518Z,17.58
2022-10-13T17:21:48.205Z,18.13
2022-10-13T17:24:17.152Z,17.45
2022-10-13T17:26:44.913Z,18.58
2022-10-13T17:29:12.813Z,17.23
2022-10-13T17:31:40.659Z,18.33
2022-10-13T17:34:09.576Z,20.75
2022-10-13T17:36:37.876Z,24.25
2022-10-13T17:39:14.749Z,29.52
2022-10-13T17:41:43.524Z,28.83
2022-10-13T17:44:11.868Z,30.20
2022-10-13T17:46:39.982Z,31.15
2022-10-13T17:49:10.928Z,30.10
2022-10-13T17:51:39.826Z,30.60
2022-10-13T17:54:12.964Z,29.88
2022-10-13T17:56:42.578Z,29.95
2022-10-13T17:59:10.435Z,29.75
2022-10-13T18:01:38.866Z,29.75
2022-10-13T18:04:11.351Z,32.13
2022-10-13T18:06:41.328Z,32.22
2022-10-13T18:09:13.315Z,33.38
2022-10-13T18:11:46.902Z,31.85
2022-10-13T18:14:21.666Z,34.30
2022-10-13T18:16:50.695Z,34.20
2022-10-13T18:19:21.579Z,35.45
2022-10-13T18:21:49.702Z,35.80
2022-10-13T18:24:17.464Z,34.55
2022-10-13T18:26:46.492Z,34.42
2022-10-13T18:29:14.323Z,32.80
2022-10-13T18:31:42.857Z,33.20
2022-10-13T18:34:16.134Z,33.28
2022-10-13T18:36:50.752Z,34.13
2022-10-13T18:39:29.141Z,32.13
2022-10-13T18:41:57.777Z,32.17
2022-10-13T18:44:39.957Z,33.97
2022-10-13T18:47:08.191Z,33.63
2022-10-13T18:49:35.971Z,33.17
2022-10-13T18:52:04.075Z,33.80
2022-10-13T18:54:31.878Z,33.63
2022-10-13T18:56:59.835Z,34.40
2022-10-13T18:59:27.678Z,36.78
2022-10-13T19:01:55.478Z,36.13
2022-10-13T19:04:24.038Z,37.08
2022-10-13T19:06:53.409Z,38.50
2022-10-13T19:09:21.788Z,37.63
2022-10-13T19:11:49.610Z,36.80
2022-10-13T19:14:19.038Z,37.97
2022-10-13T19:16:46.887Z,37.97
2022-10-13T19:19:14.955Z,37.90
2022-10-13T19:21:42.903Z,38.10
2022-10-13T19:24:12.021Z,36.72
2022-10-13T19:26:39.788Z,35.25
2022-10-13T19:29:11.207Z,37.45
2022-10-13T19:31:41.558Z,33.80
2022-10-13T19:34:11.401Z,36.97
2022-10-13T19:36:45.055Z,36.00
2022-10-13T19:39:19.596Z,38.30
2022-10-13T19:41:48.425Z,38.58
2022-10-13T19:44:17.184Z,36.00
2022-10-13T19:46:46.516Z,34.70
2022-10-13T19:49:17.209Z,35.78
2022-10-13T19:51:49.411Z,36.67
2022-10-13T19:54:19.116Z,37.20
2022-10-13T19:56:49.270Z,37.22
2022-10-13T19:59:17.897Z,37.20
2022-10-13T20:01:45.816Z,38.38
2022-10-13T20:04:14.796Z,38.85
2022-10-13T20:06:44.865Z,41.60
2022-10-13T20:09:13.286Z,40.00
2022-10-13T20:11:42.370Z,41.28
2022-10-13T20:14:10.857Z,40.47
2022-10-13T20:16:38.555Z,42.33
2022-10-13T20:19:07.117Z,43.75
2022-10-13T20:21:34.935Z,41.65
2022-10-13T20:24:02.692Z,44.65
2022-10-13T20:26:30.344Z,48.50
2022-10-13T20:28:58.451Z,41.65
2022-10-13T20:31:27.004Z,46.38
2022-10-13T20:33:56.283Z,45.20
2022-10-13T20:36:26.271Z,53.45
2022-10-13T20:38:55.168Z,49.20
2022-10-13T20:41:28.738Z,50.42
2022-10-13T20:43:58.329Z,53.92
2022-10-13T20:46:26.918Z,49.90
2022-10-13T20:49:11.772Z,50.10
2022-10-13T20:51:40.919Z,50.15
2022-10-13T20:54:09.668Z,52.22
2022-10-13T20:56:37.605Z,50.03
2022-10-13T20:59:11.763Z,52.00
2022-10-13T21:01:40.798Z,50.42
2022-10-13T21:04:08.725Z,48.92
2022-10-13T21:06:36.462Z,47.00
2022-10-13T21:09:05.810Z,48.63
2022-10-13T21:11:58.508Z,48.45
2022-10-13T21:14:36.080Z,48.63
2022-10-13T21:17:03.990Z,49.78
2022-10-13T21:19:32.147Z,46.72
2022-10-13T21:22:00.078Z,50.00
2022-10-13T21:24:27.869Z,46.28
2022-10-13T21:26:55.668Z,48.42
2022-10-13T21:29:29.777Z,45.33
2022-10-13T21:31:57.595Z,46.92
2022-10-13T21:34:25.435Z,45.35
2022-10-13T21:36:53.459Z,45.78
2022-10-13T21:39:23.058Z,44.38
2022-10-13T21:41:50.725Z,46.20
2022-10-13T21:44:18.418Z,45.85
2022-10-13T21:46:53.082Z,46.42
2022-10-13T21:49:21.659Z,47.80
2022-10-13T21:51:49.499Z,46.03
2022-10-13T21:54:17.265Z,46.38
2022-10-13T21:56:45.178Z,45.53
2022-10-13T21:59:13.968Z,43.70
2022-10-13T22:01:42.478Z,45.47
2022-10-13T22:04:14.816Z,45.67
2022-10-13T22:06:43.047Z,44.50
2022-10-13T22:09:14.288Z,46.65
2022-10-13T22:14:14.175Z,46.17
2022-10-13T22:16:45.884Z,47.95
2022-10-13T22:19:15.338Z,47.60
2022-10-13T22:21:47.404Z,47.70
2022-10-13T22:24:17.699Z,49.45
2022-10-13T22:26:47.532Z,49.77
2022-10-13T22:29:19.639Z,49.00
2022-10-13T22:31:48.904Z,45.60
2022-10-13T22:34:25.309Z,45.67
2022-10-13T22:36:54.853Z,43.53
2022-10-13T22:39:25.548Z,44.47
2022-10-13T22:41:54.120Z,46.65
2022-10-13T22:44:22.058Z,42.22
2022-10-13T22:46:50.819Z,44.70
2022-10-13T22:49:43.557Z,43.40
2022-10-13T22:52:11.908Z,45.10
2022-10-13T22:55:04.800Z,44.08
2022-10-13T22:57:33.168Z,42.78
2022-10-13T23:00:00.930Z,43.10
2022-10-13T23:02:28.821Z,44.85
2022-10-13T23:04:56.555Z,42.38
2022-10-13T23:07:29.764Z,41.53
2022-10-13T23:10:22.557Z,42.13
2022-10-13T23:12:50.889Z,41.45
2022-10-13T23:15:21.864Z,41.20
2022-10-13T23:17:49.657Z,42.15
2022-10-13T23:20:17.561Z,41.20
2022-10-13T23:22:45.585Z,41.90
2022-10-13T23:25:13.294Z,41.50
2022-10-13T23:27:41.783Z,42.03
2022-10-13T23:30:10.068Z,42.95
2022-10-13T23:32:38.792Z,42.25
2022-10-13T23:35:06.710Z,42.55
2022-10-13T23:37:35.778Z,40.63
2022-10-13T23:40:03.922Z,41.65
2022-10-13T23:42:31.761Z,41.47
2022-10-13T23:44:59.502Z,42.42
2022-10-13T23:47:27.211Z,45.67
2022-10-13T23:49:54.809Z,43.03
2022-10-13T23:52:22.840Z,41.92
2022-10-13T23:54:50.566Z,40.53
